Time;durP1;ratioP1;P1;durP2;ratioP2;P2;SDS_P1;SDS_P2;PMS_P1;PMS_P2;Temp;Humidity;BMP_temperature;BMP_pressure;BME280_temperature;BME280_humidity;BME280_pressure;Samples;Min_cycle;Max_cycle;Signal;HPM_P1;HPM_P2
2024/02/12 05:07:06;;;;;;;;;;;16.30;64.60;;;;;;5039983;28;20381;-72
2024/02/12 05:09:32;;;;;;;;;;;16.60;68.90;;;;;;5032910;28;19921;-71
2024/02/12 05:11:58;;;;;;;;;;;16.40;69.20;;;;;;5032801;28;20295;-72
2024/02/12 05:14:26;;;;;;;;;;;16.40;69.10;;;;;;5032628;28;20004;-71
2024/02/12 05:16:59;;;;;;;;;;;16.40;69.00;;;;;;5032738;28;19961;-72
2024/02/12 05:24:54;;;;;;;;;;;16.30;65.40;;;;;;5039562;28;19932;-72
2024/02/12 05:27:19;;;;;;;;;;;16.30;68.80;;;;;;5032548;28;19916;-72
2024/02/12 05:29:45;;;;;;;;;;;16.40;69.00;;;;;;5032422;28;20359;-69
2024/02/12 05:32:11;;;;;;;;;;;16.40;68.80;;;;;;5032611;28;19916;-72
2024/02/12 05:34:38;;;;;;;;;;;16.40;69.00;;;;;;5033028;28;20394;-72
2024/02/12 05:37:03;;;;;;;;;;;16.30;68.80;;;;;;5032504;28;19968;-72
2024/02/12 05:39:31;;;;;;;;;;;16.40;68.80;;;;;;5032514;28;19909;-71
2024/02/12 05:41:57;;;;;;;;;;;16.40;68.80;;;;;;5032517;28;19909;-72
2024/02/12 05:44:22;;;;;;;;;;;16.40;69.00;;;;;;5032553;28;19909;-71
2024/02/12 05:46:49;;;;;;;;;;;16.40;68.90;;;;;;5032626;28;20314;-72
2024/02/12 05:49:21;;;;;;;;;;;16.40;68.80;;;;;;5032436;28;19940;-72
2024/02/12 05:51:46;;;;;;;;;;;16.40;69.20;;;;;;5035988;28;19909;-72
2024/02/12 05:54:12;;;;;;;;;;;16.40;68.80;;;;;;5036293;28;19909;-72
2024/02/12 05:56:40;;;;;;;;;;;16.40;68.90;;;;;;5036312;28;20042;-72
2024/02/12 05:59:06;;;;;;;;;;;16.30;65.10;;;;;;5036305;28;19936;-72
2024/02/12 06:01:31;;;;;;;;;;;16.40;68.50;;;;;;5035960;28;19909;-72
2024/02/12 06:03:58;;;;;;;;;;;16.30;69.50;;;;;;5036680;28;19953;-69
2024/02/12 06:06:25;;;;;;;;;;;16.30;68.60;;;;;;5036053;28;19999;-72
2024/02/12 06:08:50;;;;;;;;;;;16.30;68.90;;;;;;5037890;28;19921;-69
2024/02/12 06:11:16;;;;;;;;;;;16.20;68.00;;;;;;5040735;28;19970;-74
2024/02/12 06:13:42;;;;;;;;;;;16.40;68.70;;;;;;5035844;28;20008;-73
2024/02/12 06:16:08;;;;;;;;;;;16.30;68.80;;;;;;5036246;28;19921;-74
2024/02/12 06:18:34;;;;;;;;;;;16.40;68.90;;;;;;5035743;28;19945;-73
2024/02/12 06:21:00;;;;;;;;;;;16.30;68.90;;;;;;5035729;28;20003;-74
2024/02/12 06:23:26;;;;;;;;;;;16.10;68.20;;;;;;5035705;28;19910;-74
2024/02/12 06:25:52;;;;;;;;;;;16.20;68.80;;;;;;5035682;28;20413;-74
2024/02/12 06:28:18;;;;;;;;;;;16.50;68.80;;;;;;5034945;28;20016;-73
2024/02/12 06:30:44;;;;;;;;;;;16.30;68.70;;;;;;5035725;28;19999;-73
2024/02/12 06:33:09;;;;;;;;;;;16.30;68.70;;;;;;5036610;28;19945;-72
2024/02/12 06:35:35;;;;;;;;;;;16.40;69.00;;;;;;5035488;28;19931;-73
2024/02/12 06:38:03;;;;;;;;;;;16.40;68.80;;;;;;5035516;28;19913;-72
2024/02/12 06:40:29;;;;;;;;;;;16.30;68.70;;;;;;5035785;28;20404;-72
2024/02/12 06:42:55;;;;;;;;;;;16.40;69.00;;;;;;5035489;28;20355;-76
2024/02/12 06:45:21;;;;;;;;;;;16.30;69.00;;;;;;5035471;28;19916;-73
2024/02/12 06:47:47;;;;;;;;;;;16.30;68.80;;;;;;5035531;28;19997;-72
2024/02/12 06:50:13;;;;;;;;;;;16.50;69.40;;;;;;5035245;28;19923;-73
2024/02/12 06:52:39;;;;;;;;;;;16.30;69.30;;;;;;5035244;28;19919;-73
2024/02/12 06:55:06;;;;;;;;;;;16.30;69.50;;;;;;5035575;28;20256;-72
2024/02/12 06:57:32;;;;;;;;;;;16.40;68.70;;;;;;5035525;28;19915;-72
2024/02/12 06:59:58;;;;;;;;;;;16.30;69.20;;;;;;5035396;28;19991;-73
2024/02/12 07:02:23;;;;;;;;;;;16.40;69.10;;;;;;5035194;28;20389;-72
2024/02/12 07:04:49;;;;;;;;;;;16.40;69.40;;;;;;5035170;28;19909;-73
2024/02/12 07:07:16;;;;;;;;;;;16.50;69.60;;;;;;5035174;28;19956;-72
2024/02/12 07:09:41;;;;;;;;;;;16.40;69.70;;;;;;5034876;28;20341;-72
2024/02/12 07:12:07;;;;;;;;;;;16.50;69.40;;;;;;5034793;28;19909;-72
2024/02/12 07:14:33;;;;;;;;;;;16.60;69.20;;;;;;5034739;28;19909;-73
2024/02/12 07:16:59;;;;;;;;;;;16.40;69.20;;;;;;5034843;28;19976;-71
2024/02/12 07:19:26;;;;;;;;;;;16.30;69.40;;;;;;5034900;28;20255;-71
2024/02/12 07:21:51;;;;;;;;;;;16.50;69.20;;;;;;5034465;28;19909;-72
2024/02/12 07:24:17;;;;;;;;;;;16.40;69.20;;;;;;5034661;28;19916;-72
2024/02/12 07:26:44;;;;;;;;;;;16.60;69.40;;;;;;5034207;28;19910;-72
2024/02/12 07:29:10;;;;;;;;;;;16.40;69.20;;;;;;5034899;28;19917;-72
2024/02/12 07:31:36;;;;;;;;;;;16.30;69.20;;;;;;5034300;28;20000;-72
2024/02/12 07:34:03;;;;;;;;;;;16.40;69.20;;;;;;5034099;28;20379;-72
2024/02/12 07:36:29;;;;;;;;;;;16.40;69.20;;;;;;5034477;28;19913;-72
2024/02/12 07:38:55;;;;;;;;;;;16.30;69.30;;;;;;5034383;28;19936;-72
2024/02/12 07:41:20;;;;;;;;;;;16.40;69.00;;;;;;5034493;28;19956;-72
2024/02/12 07:43:46;;;;;;;;;;;16.40;69.10;;;;;;5033988;28;20001;-70
2024/02/12 07:46:14;;;;;;;;;;;16.30;68.90;;;;;;5034187;28;19916;-73
2024/02/12 07:48:41;;;;;;;;;;;16.40;69.10;;;;;;5033785;28;19917;-79
2024/02/12 07:51:09;;;;;;;;;;;16.40;69.10;;;;;;5033774;28;20368;-73
2024/02/12 07:53:36;;;;;;;;;;;16.30;68.70;;;;;;5034006;28;20035;-73
2024/02/12 07:56:04;;;;;;;;;;;16.30;68.90;;;;;;5033797;28;19909;-73
2024/02/12 07:58:29;;;;;;;;;;;16.30;68.60;;;;;;5034938;28;19909;-72
2024/02/12 08:00:57;;;;;;;;;;;16.30;68.80;;;;;;5033925;28;19913;-72
2024/02/12 08:03:23;;;;;;;;;;;16.40;68.20;;;;;;5033551;28;19980;-72
2024/02/12 08:05:49;;;;;;;;;;;16.20;68.90;;;;;;5033618;28;20311;-72
2024/02/12 08:08:15;;;;;;;;;;;16.30;68.70;;;;;;5033438;28;19917;-72
2024/02/12 08:10:41;;;;;;;;;;;16.30;68.40;;;;;;5033486;28;19917;-73
2024/02/12 08:13:06;;;;;;;;;;;16.40;68.80;;;;;;5033069;28;20310;-72
2024/02/12 08:15:32;;;;;;;;;;;16.40;68.50;;;;;;5033564;28;19910;-71
2024/02/12 08:17:58;;;;;;;;;;;16.40;68.60;;;;;;5033375;28;20417;-73
2024/02/12 08:20:26;;;;;;;;;;;16.30;68.70;;;;;;5033369;28;20339;-73
2024/02/12 08:22:54;;;;;;;;;;;16.40;66.40;;;;;;5033326;28;19909;-73
2024/02/12 08:25:20;;;;;;;;;;;16.40;68.50;;;;;;5033069;28;19928;-73
2024/02/12 08:27:46;;;;;;;;;;;16.30;68.50;;;;;;5033860;28;20342;-74
2024/02/12 08:30:15;;;;;;;;;;;16.40;68.50;;;;;;5033397;28;19913;-73
2024/02/12 08:32:42;;;;;;;;;;;16.30;64.10;;;;;;5033396;28;19916;-74
2024/02/12 08:35:08;;;;;;;;;;;16.20;68.60;;;;;;5032989;28;19917;-73
2024/02/12 08:37:37;;;;;;;;;;;16.20;68.40;;;;;;5032986;28;19916;-73
2024/02/12 08:40:16;;;;;;;;;;;16.30;64.20;;;;;;5033257;28;19963;-73
2024/02/12 08:42:44;;;;;;;;;;;16.30;66.50;;;;;;5032698;28;19909;-73
2024/02/12 08:45:10;;;;;;;;;;;16.30;67.80;;;;;;5032950;28;20282;-73
2024/02/12 08:47:36;;;;;;;;;;;16.40;68.60;;;;;;5032796;28;19909;-73
2024/02/12 08:50:03;;;;;;;;;;;16.40;68.40;;;;;;5032789;28;19916;-73
2024/02/12 08:52:31;;;;;;;;;;;16.30;68.20;;;;;;5033178;28;19914;-73
2024/02/12 08:54:59;;;;;;;;;;;16.30;68.10;;;;;;5033376;28;19910;-73
2024/02/12 08:57:25;;;;;;;;;;;16.30;68.40;;;;;;5032245;28;19916;-73
2024/02/12 08:59:52;;;;;;;;;;;16.20;69.30;;;;;;5032631;28;19913;-73
2024/02/12 09:02:18;;;;;;;;;;;16.90;68.40;;;;;;5032055;28;19925;-73
2024/02/12 09:04:43;;;;;;;;;;;16.30;68.50;;;;;;5032877;28;19918;-73
2024/02/12 09:07:09;;;;;;;;;;;16.30;68.40;;;;;;5032790;28;20291;-73
2024/02/12 09:09:34;;;;;;;;;;;16.30;68.20;;;;;;5032486;28;19965;-73
2024/02/12 09:12:01;;;;;;;;;;;16.30;68.40;;;;;;5032468;28;19940;-73
2024/02/12 09:14:27;;;;;;;;;;;16.30;68.30;;;;;;5032383;28;19915;-73
2024/02/12 09:16:53;;;;;;;;;;;16.30;68.60;;;;;;5031440;28;19913;-73
2024/02/12 09:19:18;;;;;;;;;;;16.30;68.40;;;;;;5031169;28;19924;-74
2024/02/12 09:21:45;;;;;;;;;;;16.00;68.50;;;;;;5031439;28;19924;-74
2024/02/12 09:24:12;;;;;;;;;;;16.30;67.80;;;;;;5032070;28;19913;-75
2024/02/12 09:26:37;;;;;;;;;;;16.30;67.50;;;;;;5032845;28;19920;-72
2024/02/12 09:29:03;;;;;;;;;;;16.40;68.50;;;;;;5030873;28;19927;-72
2024/02/12 09:31:31;;;;;;;;;;;16.30;68.20;;;;;;5031181;28;20249;-71
2024/02/12 09:33:59;;;;;;;;;;;16.40;68.50;;;;;;5032170;28;19921;-70
2024/02/12 09:36:25;;;;;;;;;;;16.30;68.00;;;;;;5032446;28;19963;-71
2024/02/12 09:38:52;;;;;;;;;;;16.30;68.40;;;;;;5032166;28;20326;-72
2024/02/12 09:41:21;;;;;;;;;;;16.30;68.00;;;;;;5032116;28;19913;-72
2024/02/12 09:43:46;;;;;;;;;;;16.30;68.20;;;;;;5032450;28;20299;-72
2024/02/12 09:46:13;;;;;;;;;;;16.40;68.40;;;;;;5032073;28;19913;-71
2024/02/12 09:48:40;;;;;;;;;;;16.30;68.20;;;;;;5032235;28;19917;-72
2024/02/12 09:51:07;;;;;;;;;;;16.40;67.80;;;;;;5032821;28;20429;-71
2024/02/12 09:53:34;;;;;;;;;;;16.50;68.20;;;;;;5032044;28;19909;-71
2024/02/12 09:56:00;;;;;;;;;;;16.40;68.50;;;;;;5032044;28;19913;-71
2024/02/12 09:58:26;;;;;;;;;;;15.50;67.80;;;;;;5031948;28;19932;-72
2024/02/12 10:00:51;;;;;;;;;;;16.40;68.60;;;;;;5031814;28;19948;-72
2024/02/12 10:03:17;;;;;;;;;;;16.40;67.80;;;;;;5031844;28;19990;-72
2024/02/12 10:05:43;;;;;;;;;;;16.50;68.40;;;;;;5031858;28;19909;-72
2024/02/12 10:08:22;;;;;;;;;;;16.50;68.70;;;;;;5031883;28;20011;-72
2024/02/12 10:10:48;;;;;;;;;;;16.40;64.10;;;;;;5031858;28;20003;-72
2024/02/12 10:13:13;;;;;;;;;;;16.50;68.60;;;;;;5031895;28;19927;-72
2024/02/12 10:15:41;;;;;;;;;;;16.50;68.60;;;;;;5032110;28;20286;-72
2024/02/12 10:18:08;;;;;;;;;;;16.60;65.40;;;;;;5031852;28;19909;-72
2024/02/12 10:20:34;;;;;;;;;;;16.50;68.80;;;;;;5032328;28;19909;-72
2024/02/12 10:23:00;;;;;;;;;;;16.50;68.60;;;;;;5031877;28;19977;-72
2024/02/12 10:25:25;;;;;;;;;;;16.50;68.80;;;;;;5031741;28;19909;-72
2024/02/12 10:27:51;;;;;;;;;;;16.40;68.70;;;;;;5031630;28;19952;-72
2024/02/12 10:30:17;;;;;;;;;;;16.50;68.80;;;;;;5031731;28;20430;-72
2024/02/12 10:32:46;;;;;;;;;;;16.40;68.80;;;;;;5031602;28;19909;-72
2024/02/12 10:35:14;;;;;;;;;;;16.50;68.80;;;;;;5031675;28;20393;-72
2024/02/12 10:37:40;;;;;;;;;;;16.50;69.10;;;;;;5034595;28;19963;-72
2024/02/12 10:40:12;;;;;;;;;;;16.50;68.60;;;;;;5035112;28;19916;-72
2024/02/12 10:42:49;;;;;;;;;;;16.50;68.10;;;;;;5035434;28;19909;-72
2024/02/12 10:45:18;;;;;;;;;;;16.60;64.40;;;;;;5035358;28;19916;-75
2024/02/12 10:47:43;;;;;;;;;;;16.60;64.50;;;;;;5035048;28;19909;-72
2024/02/12 10:50:13;;;;;;;;;;;16.60;68.40;;;;;;5035799;28;20290;-72
2024/02/12 10:52:42;;;;;;;;;;;16.80;67.80;;;;;;5035011;28;19920;-72
2024/02/12 10:55:09;;;;;;;;;;;16.70;63.80;;;;;;5035005;28;19945;-72
2024/02/12 10:57:38;;;;;;;;;;;16.80;67.80;;;;;;5035092;28;19916;-72
2024/02/12 11:00:07;;;;;;;;;;;16.80;68.40;;;;;;5034999;28;19909;-74
2024/02/12 11:02:45;;;;;;;;;;;16.80;67.70;;;;;;5034695;28;20023;-73
2024/02/12 11:05:12;;;;;;;;;;;16.80;63.90;;;;;;5035015;28;19913;-72
2024/02/12 11:07:37;;;;;;;;;;;16.90;68.10;;;;;;5034641;28;19909;-72
2024/02/12 11:10:05;;;;;;;;;;;16.80;68.00;;;;;;5034571;28;20008;-72
2024/02/12 11:12:33;;;;;;;;;;;16.90;67.40;;;;;;5034759;28;19913;-72
2024/02/12 11:15:10;;;;;;;;;;;17.00;67.50;;;;;;5034750;28;20300;-72
2024/02/12 11:17:36;;;;;;;;;;;17.00;63.20;;;;;;5035098;28;19952;-73
2024/02/12 11:20:05;;;;;;;;;;;16.90;67.50;;;;;;5034382;28;19963;-75
2024/02/12 11:22:31;;;;;;;;;;;17.00;67.60;;;;;;5034601;28;19949;-74
2024/02/12 11:25:03;;;;;;;;;;;16.90;67.70;;;;;;5032811;28;20478;-75
2024/02/12 11:27:47;;;;;;;;;;;16.90;63.50;;;;;;5034495;28;19913;-75
2024/02/12 11:30:14;;;;;;;;;;;16.90;63.80;;;;;;5034244;28;20527;-74
2024/02/12 11:32:40;;;;;;;;;;;16.80;67.80;;;;;;5034469;28;19988;-74
2024/02/12 11:35:15;;;;;;;;;;;16.90;68.20;;;;;;5034191;28;19933;-77
2024/02/12 11:37:45;;;;;;;;;;;16.80;63.90;;;;;;5034034;28;19910;-74
2024/02/12 11:40:18;;;;;;;;;;;16.80;64.00;;;;;;5034270;28;19936;-74
2024/02/12 11:42:49;;;;;;;;;;;16.80;64.00;;;;;;5034262;28;19909;-74
2024/02/12 11:45:15;;;;;;;;;;;16.80;68.60;;;;;;5034683;28;19940;-74
2024/02/12 11:47:41;;;;;;;;;;;16.80;68.60;;;;;;5032863;28;19915;-75
2024/02/12 11:50:08;;;;;;;;;;;17.10;68.70;;;;;;5033800;28;20003;-74
2024/02/12 11:52:34;;;;;;;;;;;16.80;67.80;;;;;;5034146;28;19909;-76
2024/02/12 11:55:01;;;;;;;;;;;17.00;68.50;;;;;;5034132;28;19917;-81
2024/02/12 11:57:27;;;;;;;;;;;16.90;68.40;;;;;;5033967;28;20008;-76
2024/02/12 11:59:55;;;;;;;;;;;16.50;67.70;;;;;;5034079;28;19909;-75
2024/02/12 12:02:21;;;;;;;;;;;16.90;67.40;;;;;;5033723;28;19921;-75
2024/02/12 12:04:47;;;;;;;;;;;16.80;68.20;;;;;;5033988;28;20268;-75
2024/02/12 12:07:14;;;;;;;;;;;16.90;67.70;;;;;;5033720;28;19916;-75
2024/02/12 12:09:39;;;;;;;;;;;17.00;67.80;;;;;;5033656;28;19924;-76
2024/02/12 12:12:06;;;;;;;;;;;17.00;67.40;;;;;;5033485;28;19909;-76
2024/02/12 12:14:36;;;;;;;;;;;17.10;65.40;;;;;;5034339;28;20309;-75
2024/02/12 12:17:02;;;;;;;;;;;17.20;63.40;;;;;;5033747;28;19909;-75
2024/02/12 12:19:27;;;;;;;;;;;17.20;66.50;;;;;;5033492;28;19916;-75
2024/02/12 12:21:54;;;;;;;;;;;17.20;66.30;;;;;;5033674;28;19909;-76
2024/02/12 12:24:20;;;;;;;;;;;17.30;66.30;;;;;;5033275;28;19909;-74
2024/02/12 12:26:46;;;;;;;;;;;16.90;66.00;;;;;;5033425;28;20007;-74
2024/02/12 12:29:12;;;;;;;;;;;17.20;66.40;;;;;;5033393;28;19979;-73
2024/02/12 12:31:37;;;;;;;;;;;17.20;66.40;;;;;;5033229;28;20410;-74
2024/02/12 12:34:06;;;;;;;;;;;17.20;66.50;;;;;;5033179;28;20335;-73
2024/02/12 12:36:32;;;;;;;;;;;17.20;66.40;;;;;;5033094;28;20337;-76
2024/02/12 12:38:58;;;;;;;;;;;17.40;66.40;;;;;;5031845;28;19909;-73
2024/02/12 12:41:24;;;;;;;;;;;17.20;66.30;;;;;;5032947;28;19909;-72
2024/02/12 12:43:50;;;;;;;;;;;17.30;66.30;;;;;;5033411;28;19909;-72
2024/02/12 12:46:18;;;;;;;;;;;17.20;66.50;;;;;;5033111;28;19909;-73
2024/02/12 12:48:44;;;;;;;;;;;17.20;67.00;;;;;;5032737;28;20306;-72
2024/02/12 12:51:10;;;;;;;;;;;17.10;66.40;;;;;;5032837;28;20000;-73
2024/02/12 12:53:37;;;;;;;;;;;17.10;66.50;;;;;;5032879;28;20055;-73
2024/02/12 12:56:03;;;;;;;;;;;17.00;66.50;;;;;;5032877;28;19909;-73
2024/02/12 12:58:28;;;;;;;;;;;17.00;66.20;;;;;;5031427;28;19932;-73
2024/02/12 13:00:54;;;;;;;;;;;17.00;66.70;;;;;;5032497;28;19917;-73
2024/02/12 13:03:21;;;;;;;;;;;17.00;66.20;;;;;;5031084;28;19921;-73
2024/02/12 13:05:46;;;;;;;;;;;17.00;66.80;;;;;;5032714;28;20414;-73
2024/02/12 13:08:12;;;;;;;;;;;17.00;66.80;;;;;;5032445;28;20015;-73
2024/02/12 13:10:41;;;;;;;;;;;17.00;66.80;;;;;;5033025;28;19909;-73
2024/02/12 13:13:13;;;;;;;;;;;16.90;67.10;;;;;;5032562;28;19910;-73
2024/02/12 13:15:42;;;;;;;;;;;16.90;62.90;;;;;;5032816;28;20347;-73
2024/02/12 13:18:10;;;;;;;;;;;17.00;63.10;;;;;;5032529;28;19909;-72
2024/02/12 13:20:36;;;;;;;;;;;16.90;67.10;;;;;;5032441;28;19909;-73
2024/02/12 13:23:05;;;;;;;;;;;17.00;68.00;;;;;;5032538;28;19955;-73
2024/02/12 13:25:32;;;;;;;;;;;16.90;67.30;;;;;;5032386;28;19936;-73
2024/02/12 13:27:59;;;;;;;;;;;16.90;67.60;;;;;;5032655;28;19917;-73
2024/02/12 13:30:31;;;;;;;;;;;16.90;67.40;;;;;;5032318;28;19996;-73
2024/02/12 13:33:04;;;;;;;;;;;16.90;63.30;;;;;;5032645;28;20000;-73
2024/02/12 13:35:40;;;;;;;;;;;17.00;63.30;;;;;;5032483;28;20264;-73
2024/02/12 13:38:06;;;;;;;;;;;17.00;63.40;;;;;;5032279;28;19909;-74
2024/02/12 13:40:32;;;;;;;;;;;16.90;67.40;;;;;;5032810;28;19940;-72
2024/02/12 13:42:58;;;;;;;;;;;16.90;67.60;;;;;;5032306;28;19956;-73
2024/02/12 13:45:24;;;;;;;;;;;16.90;67.40;;;;;;5032496;28;19909;-72
2024/02/12 13:47:51;;;;;;;;;;;16.90;67.30;;;;;;5032049;28;19999;-73
2024/02/12 13:50:16;;;;;;;;;;;17.00;67.60;;;;;;5032322;28;19916;-72
2024/02/12 13:52:42;;;;;;;;;;;16.90;67.50;;;;;;5032281;28;19909;-75
2024/02/12 13:55:11;;;;;;;;;;;16.90;67.00;;;;;;5032144;28;19967;-74
2024/02/12 13:57:37;;;;;;;;;;;16.90;66.90;;;;;;5032423;28;19909;-74
2024/02/12 14:00:06;;;;;;;;;;;17.10;66.80;;;;;;5032007;28;19909;-74
2024/02/12 14:02:32;;;;;;;;;;;17.30;65.70;;;;;;5031863;28;19921;-73
2024/02/12 14:04:58;;;;;;;;;;;17.20;65.90;;;;;;5032112;28;19909;-74
2024/02/12 14:07:24;;;;;;;;;;;17.30;65.40;;;;;;5032423;28;19913;-74
2024/02/12 14:09:50;;;;;;;;;;;17.40;62.90;;;;;;5032338;28;20004;-73
2024/02/12 14:12:17;;;;;;;;;;;17.40;65.50;;;;;;5034801;28;20343;-75
2024/02/12 14:14:43;;;;;;;;;;;17.40;66.20;;;;;;5035749;28;20387;-76
2024/02/12 14:17:11;;;;;;;;;;;17.30;65.50;;;;;;5035724;28;20371;-76
2024/02/12 14:19:39;;;;;;;;;;;17.30;65.80;;;;;;5034705;28;20390;-76
2024/02/12 14:22:07;;;;;;;;;;;17.00;65.60;;;;;;5034631;28;19913;-75
2024/02/12 14:24:34;;;;;;;;;;;17.20;65.80;;;;;;5034684;28;20323;-72
2024/02/12 14:26:59;;;;;;;;;;;17.30;65.80;;;;;;5034613;28;20002;-72
2024/02/12 14:29:25;;;;;;;;;;;17.10;66.10;;;;;;5034100;28;19956;-72
2024/02/12 14:31:50;;;;;;;;;;;17.10;66.10;;;;;;5034276;28;20359;-72
2024/02/12 14:34:16;;;;;;;;;;;17.10;65.90;;;;;;5034250;28;19927;-72
2024/02/12 14:36:41;;;;;;;;;;;17.00;66.10;;;;;;5035890;28;20011;-72
2024/02/12 14:39:07;;;;;;;;;;;17.00;65.80;;;;;;5034111;28;20019;-72
2024/02/12 14:41:32;;;;;;;;;;;17.10;65.50;;;;;;5034006;28;19913;-72
2024/02/12 14:43:58;;;;;;;;;;;17.20;65.10;;;;;;5033984;28;19944;-72
2024/02/12 14:46:25;;;;;;;;;;;17.30;65.00;;;;;;5033900;28;19920;-72
2024/02/12 14:48:51;;;;;;;;;;;17.30;64.60;;;;;;5034099;28;19921;-72
2024/02/12 14:51:17;;;;;;;;;;;17.30;65.00;;;;;;5034215;28;19955;-73
2024/02/12 14:53:43;;;;;;;;;;;17.30;64.80;;;;;;5033835;28;19913;-72
2024/02/12 14:56:09;;;;;;;;;;;17.20;65.00;;;;;;5034103;28;20004;-72
2024/02/12 14:58:35;;;;;;;;;;;17.30;65.00;;;;;;5033678;28;19987;-73
2024/02/12 15:01:04;;;;;;;;;;;17.30;64.80;;;;;;5033969;28;19913;-74
2024/02/12 15:03:30;;;;;;;;;;;17.30;64.20;;;;;;5033550;28;20451;-73
2024/02/12 15:05:57;;;;;;;;;;;17.30;64.90;;;;;;5033608;28;19913;-73
2024/02/12 15:08:22;;;;;;;;;;;17.50;64.20;;;;;;5033784;28;19921;-73
2024/02/12 15:10:49;;;;;;;;;;;17.40;64.60;;;;;;5033376;28;19919;-73
2024/02/12 15:13:16;;;;;;;;;;;17.60;64.20;;;;;;5033670;28;19919;-72
2024/02/12 15:15:42;;;;;;;;;;;17.50;64.30;;;;;;5033573;28;19913;-73
2024/02/12 15:18:12;;;;;;;;;;;17.50;64.20;;;;;;5033530;28;19913;-72
2024/02/12 15:20:37;;;;;;;;;;;17.50;64.30;;;;;;5033670;28;20008;-72
2024/02/12 15:23:04;;;;;;;;;;;17.60;64.00;;;;;;5033179;28;20011;-72
2024/02/12 15:25:31;;;;;;;;;;;17.60;63.30;;;;;;5033597;28;19913;-72
2024/02/12 15:28:01;;;;;;;;;;;17.60;63.80;;;;;;5033505;28;19921;-72
2024/02/12 15:30:27;;;;;;;;;;;17.60;63.70;;;;;;5034452;28;19928;-73
2024/02/12 15:32:56;;;;;;;;;;;17.90;63.90;;;;;;5033376;28;19944;-72
2024/02/12 15:35:24;;;;;;;;;;;17.70;63.40;;;;;;5033321;28;19920;-72
2024/02/12 15:37:51;;;;;;;;;;;17.70;63.60;;;;;;5032949;28;20399;-72
2024/02/12 15:40:20;;;;;;;;;;;17.70;63.70;;;;;;5033215;28;19996;-72
2024/02/12 15:42:46;;;;;;;;;;;17.70;61.50;;;;;;5033450;28;20017;-73
2024/02/12 15:45:12;;;;;;;;;;;17.70;63.30;;;;;;5032780;28;19914;-72
2024/02/12 15:47:43;;;;;;;;;;;17.70;63.20;;;;;;5032956;28;19924;-72
2024/02/12 15:50:09;;;;;;;;;;;17.70;63.50;;;;;;5034225;28;19955;-72
2024/02/12 15:52:36;;;;;;;;;;;17.70;63.10;;;;;;5034318;28;19913;-73
2024/02/12 15:55:01;;;;;;;;;;;17.70;63.80;;;;;;5033939;28;19909;-72
2024/02/12 15:57:28;;;;;;;;;;;17.60;63.60;;;;;;5033925;28;19909;-72
2024/02/12 15:59:53;;;;;;;;;;;17.60;63.70;;;;;;5033808;28;20287;-72
2024/02/12 16:02:19;;;;;;;;;;;17.60;63.40;;;;;;5033431;28;19922;-74
2024/02/12 16:04:45;;;;;;;;;;;17.50;64.00;;;;;;5033730;28;20414;-72
2024/02/12 16:07:12;;;;;;;;;;;17.40;64.10;;;;;;5033630;28;19913;-73
2024/02/12 16:09:40;;;;;;;;;;;17.50;64.40;;;;;;5033577;28;20279;-73
2024/02/12 16:12:10;;;;;;;;;;;17.40;60.10;;;;;;5034256;28;20276;-75
2024/02/12 16:14:37;;;;;;;;;;;17.50;64.30;;;;;;5033847;28;19919;-73
2024/02/12 16:17:03;;;;;;;;;;;17.10;64.40;;;;;;5033421;28;20007;-72
2024/02/12 16:19:30;;;;;;;;;;;17.20;64.50;;;;;;5032504;28;20287;-72
2024/02/12 16:21:57;;;;;;;;;;;17.30;64.70;;;;;;5033809;28;19910;-73
2024/02/12 16:24:23;;;;;;;;;;;17.50;64.90;;;;;;5033445;28;19909;-74
2024/02/12 16:26:49;;;;;;;;;;;17.10;64.80;;;;;;5033148;28;19970;-73
2024/02/12 16:29:14;;;;;;;;;;;17.10;65.00;;;;;;5033192;28;19917;-74
2024/02/12 16:31:42;;;;;;;;;;;17.00;64.90;;;;;;5033278;28;19909;-75
2024/02/12 16:34:09;;;;;;;;;;;17.00;64.80;;;;;;5032964;28;19916;-73
2024/02/12 16:36:35;;;;;;;;;;;17.00;65.40;;;;;;5033386;28;19913;-74
2024/02/12 16:39:01;;;;;;;;;;;16.90;65.30;;;;;;5031872;28;19910;-74
2024/02/12 16:41:26;;;;;;;;;;;17.10;65.50;;;;;;5033095;28;19909;-76
2024/02/12 16:43:52;;;;;;;;;;;16.90;65.30;;;;;;5033002;28;19956;-73
2024/02/12 16:46:18;;;;;;;;;;;17.20;65.30;;;;;;5032910;28;19909;-73
2024/02/12 16:48:46;;;;;;;;;;;16.90;65.30;;;;;;5032839;28;20330;-73
2024/02/12 16:51:14;;;;;;;;;;;16.90;65.30;;;;;;5032958;28;19909;-74
2024/02/12 16:53:40;;;;;;;;;;;16.90;64.80;;;;;;5033056;28;20326;-75
2024/02/12 16:56:06;;;;;;;;;;;16.90;65.40;;;;;;5033001;28;19995;-73
2024/02/12 16:58:32;;;;;;;;;;;16.80;64.50;;;;;;5032931;28;19909;-74
2024/02/12 17:00:59;;;;;;;;;;;16.80;65.50;;;;;;5032586;28;19909;-74
2024/02/12 17:03:25;;;;;;;;;;;16.70;64.80;;;;;;5032476;28;19950;-74
2024/02/12 17:05:51;;;;;;;;;;;16.80;65.50;;;;;;5033006;28;20306;-77
2024/02/12 17:08:18;;;;;;;;;;;16.90;65.30;;;;;;5032256;28;19931;-75
2024/02/12 17:10:44;;;;;;;;;;;16.80;65.50;;;;;;5032696;28;19939;-76
2024/02/12 17:13:11;;;;;;;;;;;16.80;65.40;;;;;;5032430;28;20000;-74
2024/02/12 17:15:38;;;;;;;;;;;16.70;65.20;;;;;;5032777;28;20375;-73
2024/02/12 17:18:04;;;;;;;;;;;16.80;65.30;;;;;;5032732;28;19909;-75
2024/02/12 17:20:29;;;;;;;;;;;16.70;64.90;;;;;;5032359;28;20374;-75
2024/02/12 17:22:55;;;;;;;;;;;16.80;65.40;;;;;;5032230;28;19952;-74
2024/02/12 17:25:22;;;;;;;;;;;16.70;65.40;;;;;;5032220;28;19921;-74
2024/02/12 17:27:47;;;;;;;;;;;16.80;65.40;;;;;;5032656;28;20368;-72
2024/02/12 17:30:14;;;;;;;;;;;16.60;65.20;;;;;;5032347;28;19916;-73
2024/02/12 17:32:39;;;;;;;;;;;16.70;64.70;;;;;;5032349;28;20418;-75
2024/02/12 17:35:10;;;;;;;;;;;16.60;65.20;;;;;;5032345;28;19935;-74
2024/02/12 17:37:37;;;;;;;;;;;16.80;63.80;;;;;;5032687;28;19932;-74
2024/02/12 17:40:06;;;;;;;;;;;16.70;65.40;;;;;;5032506;28;19909;-73
2024/02/12 17:42:33;;;;;;;;;;;16.60;64.00;;;;;;5034272;28;19909;-75
2024/02/12 17:44:58;;;;;;;;;;;16.60;64.80;;;;;;5032247;28;20493;-72
2024/02/12 17:47:24;;;;;;;;;;;16.50;65.00;;;;;;5035178;28;19959;-72
2024/02/12 17:49:50;;;;;;;;;;;16.50;65.00;;;;;;5036180;28;19921;-72
2024/02/12 17:52:17;;;;;;;;;;;16.50;65.10;;;;;;5036423;28;19909;-72
2024/02/12 17:54:44;;;;;;;;;;;16.50;65.10;;;;;;5036009;28;19979;-73
2024/02/12 17:57:10;;;;;;;;;;;16.50;65.20;;;;;;5036066;28;19920;-73
2024/02/12 17:59:36;;;;;;;;;;;16.50;65.00;;;;;;5036219;28;19917;-74
2024/02/12 18:02:05;;;;;;;;;;;16.50;64.60;;;;;;5036042;28;20291;-73
2024/02/12 18:04:34;;;;;;;;;;;20.00;62.70;;;;;;5035253;28;19916;-73
2024/02/12 18:07:00;;;;;;;;;;;16.50;64.90;;;;;;5035940;28;19935;-74
2024/02/12 18:09:26;;;;;;;;;;;16.40;65.60;;;;;;5035784;28;19918;-73
2024/02/12 18:11:52;;;;;;;;;;;16.40;64.80;;;;;;5035752;28;20395;-73
2024/02/12 18:14:18;;;;;;;;;;;16.40;65.00;;;;;;5035769;28;19941;-74
2024/02/12 18:16:45;;;;;;;;;;;16.40;64.90;;;;;;5036032;28;19992;-74
2024/02/12 18:19:12;;;;;;;;;;;16.40;64.80;;;;;;5035564;28;20290;-74
2024/02/12 18:21:38;;;;;;;;;;;16.40;64.70;;;;;;5035854;28;20267;-74
2024/02/12 18:24:04;;;;;;;;;;;16.30;65.00;;;;;;5035563;28;19916;-74
2024/02/12 18:26:30;;;;;;;;;;;16.30;64.40;;;;;;5035445;28;19916;-73
2024/02/12 18:28:56;;;;;;;;;;;16.20;64.50;;;;;;5035334;28;19917;-73
2024/02/12 18:31:25;;;;;;;;;;;16.30;65.00;;;;;;5035511;28;20457;-73
2024/02/12 18:33:50;;;;;;;;;;;16.30;64.70;;;;;;5035409;28;20392;-73
2024/02/12 18:36:19;;;;;;;;;;;16.30;64.70;;;;;;5035407;28;20042;-74
2024/02/12 18:38:46;;;;;;;;;;;16.30;64.80;;;;;;5035249;28;20408;-74
2024/02/12 18:41:14;;;;;;;;;;;16.20;64.40;;;;;;5035612;28;19909;-73
2024/02/12 18:43:41;;;;;;;;;;;16.30;64.80;;;;;;5035423;28;19909;-73
2024/02/12 18:46:07;;;;;;;;;;;16.20;64.90;;;;;;5035496;28;19951;-74
2024/02/12 18:48:33;;;;;;;;;;;16.30;64.90;;;;;;5035368;28;20398;-74
2024/02/12 18:51:05;;;;;;;;;;;16.20;64.60;;;;;;5040329;28;19924;-74
2024/02/12 18:53:31;;;;;;;;;;;16.30;63.80;;;;;;5036217;28;19909;-74
2024/02/12 18:55:57;;;;;;;;;;;16.30;64.70;;;;;;5034869;28;19913;-74
2024/02/12 18:58:23;;;;;;;;;;;16.20;64.60;;;;;;5034732;28;19963;-73
2024/02/12 19:00:49;;;;;;;;;;;16.20;64.70;;;;;;5034939;28;19936;-73
2024/02/12 19:03:15;;;;;;;;;;;16.10;64.20;;;;;;5034583;28;19960;-73
2024/02/12 19:05:45;;;;;;;;;;;16.10;64.50;;;;;;5034689;28;19916;-73
2024/02/12 19:08:11;;;;;;;;;;;16.10;60.20;;;;;;5034858;28;20260;-73
2024/02/12 19:10:38;;;;;;;;;;;16.10;64.50;;;;;;5035040;28;19913;-73
2024/02/12 19:13:05;;;;;;;;;;;16.00;64.40;;;;;;5035049;28;19953;-73
2024/02/12 19:15:31;;;;;;;;;;;16.00;64.80;;;;;;5034647;28;20399;-74
2024/02/12 19:17:57;;;;;;;;;;;16.00;64.70;;;;;;5034779;28;19936;-73
2024/02/12 19:20:24;;;;;;;;;;;16.00;64.40;;;;;;5034118;28;20429;-74
2024/02/12 19:22:50;;;;;;;;;;;16.00;64.60;;;;;;5034764;28;20264;-73
2024/02/12 19:25:16;;;;;;;;;;;16.20;64.70;;;;;;5034482;28;19916;-73